Time;durP1;ratioP1;P1;durP2;ratioP2;P2;SDS_P1;SDS_P2;PMS_P1;PMS_P2;Temp;Humidity;BMP_temperature;BMP_pressure;BME280_temperature;BME280_humidity;BME280_pressure;Samples;Min_cycle;Max_cycle;Signal;HPM_P1;HPM_P2
2022/06/19 00:01:08;;;;;;;0.70;0.70;;;16.30;99.90;;;;;;4119399;28;20138;-84
2022/06/19 00:03:45;;;;;;;1.73;1.60;;;16.30;99.90;;;;;;4116856;28;20045;-84
2022/06/19 00:06:07;;;;;;;0.70;0.70;;;16.30;99.90;;;;;;4129902;28;20126;-83
2022/06/19 00:08:30;;;;;;;0.70;0.70;;;16.30;99.90;;;;;;4130319;28;20057;-84
2022/06/19 00:10:53;;;;;;;0.60;0.60;;;16.30;99.90;;;;;;4123896;28;20127;-84
2022/06/19 00:13:15;;;;;;;1.85;0.70;;;16.30;99.90;;;;;;4100318;28;20089;-84
2022/06/19 00:15:35;;;;;;;0.63;0.63;;;16.30;99.90;;;;;;4114764;28;20053;-84
2022/06/19 00:17:56;;;;;;;3.22;0.70;;;16.30;99.90;;;;;;4128470;28;20099;-84
2022/06/19 00:20:19;;;;;;;0.70;0.70;;;16.10;99.90;;;;;;4141434;28;20116;-83
2022/06/19 00:23:09;;;;;;;0.70;0.70;;;16.10;99.90;;;;;;4130441;28;20832;-83
2022/06/19 00:25:31;;;;;;;0.70;0.70;;;16.10;99.90;;;;;;4145776;28;20056;-84
2022/06/19 00:28:20;;;;;;;0.93;0.70;;;16.00;99.90;;;;;;4132075;28;20490;-83
2022/06/19 00:30:42;;;;;;;2.97;0.70;;;16.00;99.90;;;;;;4073044;29;20071;-83
2022/06/19 00:33:03;;;;;;;0.70;0.70;;;16.20;99.90;;;;;;4096367;28;20125;-83
2022/06/19 00:35:27;;;;;;;1.85;0.80;;;16.30;99.90;;;;;;4100180;28;20058;-83
2022/06/19 00:37:48;;;;;;;1.85;1.00;;;16.20;99.90;;;;;;4113614;28;20077;-84
2022/06/19 00:40:12;;;;;;;0.90;0.90;;;16.00;99.90;;;;;;4113908;28;20139;-84
2022/06/19 00:42:34;;;;;;;0.80;0.80;;;16.00;99.90;;;;;;4104597;28;20511;-83
2022/06/19 00:44:55;;;;;;;1.95;0.70;;;15.90;99.90;;;;;;4129778;28;20057;-83
2022/06/19 00:47:19;;;;;;;1.38;0.75;;;15.70;99.90;;;;;;4097380;29;20062;-83
2022/06/19 00:50:18;;;;;;;0.82;0.70;;;15.70;99.90;;;;;;4097382;29;20073;-84
2022/06/19 00:52:41;;;;;;;0.80;0.80;;;15.50;99.90;;;;;;4097511;28;20058;-84
2022/06/19 00:55:11;;;;;;;0.85;0.80;;;15.50;99.90;;;;;;4128868;28;20134;-83
2022/06/19 00:57:34;;;;;;;0.73;0.73;;;15.50;99.90;;;;;;4129148;28;20134;-84
2022/06/19 01:00:26;;;;;;;1.95;0.70;;;15.50;99.90;;;;;;4098678;28;20182;-83
2022/06/19 01:02:51;;;;;;;1.00;1.00;;;15.40;99.90;;;;;;4077829;29;20054;-83
2022/06/19 01:05:15;;;;;;;1.05;1.05;;;15.30;99.90;;;;;;4067285;29;20456;-84
2022/06/19 01:07:41;;;;;;;1.15;0.70;;;15.30;99.90;;;;;;4103399;28;20785;-83
2022/06/19 01:10:01;;;;;;;0.70;0.70;;;15.60;99.90;;;;;;4129372;28;20065;-84
2022/06/19 01:12:25;;;;;;;0.80;0.80;;;15.50;99.90;;;;;;4129004;28;20056;-84
2022/06/19 01:14:48;;;;;;;0.70;0.70;;;15.50;99.90;;;;;;4128740;28;20112;-84
2022/06/19 01:17:35;;;;;;;2.17;0.70;;;15.40;99.90;;;;;;4115140;28;20636;-83
2022/06/19 01:19:56;;;;;;;0.70;0.70;;;15.40;99.90;;;;;;4112991;28;20084;-84
2022/06/19 01:22:40;;;;;;;1.65;0.70;;;15.40;99.90;;;;;;4097015;29;20519;-83
2022/06/19 01:25:19;;;;;;;0.98;0.70;;;15.40;99.90;;;;;;4096683;29;20058;-83
2022/06/19 01:30:32;;;;;;;0.70;0.70;;;15.20;99.90;;;;;;4101791;28;20062;-83
2022/06/19 01:32:56;;;;;;;0.70;0.70;;;15.10;99.90;;;;;;4113197;28;20113;-84
2022/06/19 01:35:21;;;;;;;0.60;0.60;;;15.00;99.90;;;;;;4112834;28;20418;-84
2022/06/19 01:37:44;;;;;;;1.45;0.70;;;15.20;99.90;;;;;;4112678;28;20049;-84
2022/06/19 01:40:14;;;;;;;0.70;0.70;;;15.30;99.90;;;;;;4123442;28;20831;-83
2022/06/19 01:42:35;;;;;;;0.95;0.70;;;15.20;99.90;;;;;;4136751;28;20513;-83
2022/06/19 01:45:22;;;;;;;1.92;0.80;;;15.30;99.90;;;;;;4144877;28;20078;-84
2022/06/19 01:47:45;;;;;;;0.73;0.73;;;15.10;99.90;;;;;;4083390;29;20066;-83
2022/06/19 01:50:11;;;;;;;0.80;0.80;;;15.10;99.90;;;;;;4091049;28;20118;-83
2022/06/19 01:52:33;;;;;;;1.00;0.80;;;15.10;99.90;;;;;;4112750;28;20073;-83
2022/06/19 01:55:20;;;;;;;0.80;0.80;;;15.00;99.90;;;;;;4098849;28;20050;-83
2022/06/19 01:57:46;;;;;;;0.70;0.70;;;14.90;99.90;;;;;;4110639;28;20142;-83
2022/06/19 02:00:22;;;;;;;0.70;0.70;;;14.80;99.90;;;;;;4112338;28;20061;-84
2022/06/19 02:02:47;;;;;;;1.02;1.02;;;14.80;99.90;;;;;;4113064;28;20101;-83
2022/06/19 02:05:08;;;;;;;0.88;0.88;;;14.70;99.90;;;;;;4115117;28;20089;-84
2022/06/19 02:07:31;;;;;;;0.80;0.80;;;14.60;99.90;;;;;;4113145;28;20117;-83
2022/06/19 02:09:54;;;;;;;1.67;0.77;;;14.50;99.90;;;;;;4112849;28;20058;-83
2022/06/19 02:12:15;;;;;;;0.80;0.80;;;14.50;99.90;;;;;;4112826;28;20430;-83
2022/06/19 02:14:37;;;;;;;0.70;0.70;;;14.50;99.90;;;;;;4112223;28;20045;-84
2022/06/19 02:17:03;;;;;;;;;;;14.10;99.90;;;;;;4112678;28;20418;-83
2022/06/19 02:19:24;;;;;;;0.70;0.70;;;14.20;99.90;;;;;;4111922;28;19932;-83
2022/06/19 02:21:52;;;;;;;0.80;0.80;;;14.10;99.90;;;;;;4110298;28;20078;-84
2022/06/19 02:24:17;;;;;;;0.80;0.80;;;14.30;99.90;;;;;;4125867;28;20084;-84
2022/06/19 02:26:39;;;;;;;0.70;0.70;;;14.20;99.90;;;;;;4143834;28;20045;-83
2022/06/19 02:29:00;;;;;;;2.47;0.80;;;14.40;99.90;;;;;;4158107;28;20594;-83
2022/06/19 02:31:21;;;;;;;1.20;0.70;;;14.50;99.90;;;;;;4157580;28;20433;-83
2022/06/19 02:33:50;;;;;;;0.75;0.75;;;14.60;99.90;;;;;;4160090;28;20056;-83
2022/06/19 02:36:51;;;;;;;0.70;0.70;;;14.70;99.90;;;;;;4192802;28;20060;-83
2022/06/19 02:39:31;;;;;;;0.90;0.77;;;14.70;99.90;;;;;;4176488;28;20056;-83
2022/06/19 02:42:02;;;;;;;0.80;0.80;;;14.60;99.90;;;;;;4163789;28;20743;-84
2022/06/19 02:44:29;;;;;;;1.58;0.80;;;14.40;99.90;;;;;;4164458;28;20516;-84
2022/06/19 02:46:49;;;;;;;0.80;0.80;;;14.10;99.90;;;;;;4171642;28;20045;-84
2022/06/19 02:49:10;;;;;;;0.80;0.80;;;14.00;99.90;;;;;;4151354;28;20101;-83
2022/06/19 02:51:37;;;;;;;0.90;0.90;;;13.90;99.90;;;;;;4167515;28;20088;-84
2022/06/19 02:53:59;;;;;;;1.27;0.90;;;13.70;99.90;;;;;;4180700;28;20051;-83
2022/06/19 02:56:20;;;;;;;1.67;0.90;;;13.60;99.90;;;;;;4166226;28;20412;-83
2022/06/19 02:58:43;;;;;;;2.35;1.00;;;13.80;99.90;;;;;;4166462;28;20076;-83
2022/06/19 03:01:06;;;;;;;0.80;0.80;;;13.80;99.90;;;;;;4180535;28;20051;-83
2022/06/19 03:03:34;;;;;;;1.27;0.90;;;13.50;99.90;;;;;;4180477;28;20083;-83
2022/06/19 03:05:55;;;;;;;0.70;0.70;;;13.60;99.90;;;;;;4180385;28;20152;-83
2022/06/19 03:08:17;;;;;;;0.70;0.70;;;13.80;99.90;;;;;;4180861;28;20064;-83
2022/06/19 03:10:37;;;;;;;2.60;0.80;;;13.90;99.90;;;;;;4181929;28;20460;-83
2022/06/19 03:12:59;;;;;;;1.00;0.82;;;13.80;99.90;;;;;;4197961;28;20090;-83
2022/06/19 03:15:20;;;;;;;0.95;0.80;;;13.70;99.90;;;;;;4198515;28;20094;-83
2022/06/19 03:17:41;;;;;;;1.45;1.40;;;13.60;99.90;;;;;;4198509;28;20044;-83
2022/06/19 03:20:26;;;;;;;1.15;0.90;;;13.60;99.90;;;;;;4198998;28;20126;-83
2022/06/19 03:22:47;;;;;;;0.90;0.90;;;13.50;99.90;;;;;;4163801;28;20409;-83
2022/06/19 03:25:36;;;;;;;1.95;0.80;;;13.60;99.90;;;;;;4163842;28;20107;-83
2022/06/19 03:27:57;;;;;;;4.32;0.73;;;13.50;99.90;;;;;;4102809;28;20133;-83
2022/06/19 03:30:44;;;;;;;0.88;0.88;;;13.60;99.90;;;;;;4114950;28;20137;-83
2022/06/19 03:33:06;;;;;;;0.90;0.90;;;13.40;99.90;;;;;;4051797;29;20055;-83
2022/06/19 03:35:27;;;;;;;2.17;1.45;;;13.60;99.90;;;;;;4065769;29;20080;-83
2022/06/19 03:37:48;;;;;;;1.40;0.80;;;13.70;99.90;;;;;;4067194;29;20582;-83
2022/06/19 03:40:11;;;;;;;1.80;0.80;;;13.70;99.90;;;;;;4066513;29;20182;-83
2022/06/19 03:42:34;;;;;;;1.00;0.90;;;13.70;99.90;;;;;;4038741;29;20048;-83
2022/06/19 03:44:56;;;;;;;0.90;0.90;;;13.70;99.90;;;;;;4051495;29;20059;-83
2022/06/19 03:47:27;;;;;;;1.50;0.80;;;13.50;99.90;;;;;;4067381;29;20059;-83
2022/06/19 03:49:48;;;;;;;0.80;0.80;;;13.50;99.90;;;;;;4067561;29;20067;-83
2022/06/19 03:52:10;;;;;;;0.80;0.80;;;13.60;99.90;;;;;;4067317;29;20168;-83
2022/06/19 03:54:31;;;;;;;0.82;0.82;;;13.70;99.90;;;;;;4054210;29;20062;-83
2022/06/19 03:56:53;;;;;;;0.88;0.80;;;13.70;99.90;;;;;;4051348;29;20421;-83
2022/06/19 03:59:15;;;;;;;0.80;0.80;;;13.80;99.90;;;;;;4058692;29;20055;-84
2022/06/19 04:02:10;;;;;;;0.90;0.90;;;13.70;99.90;;;;;;4098770;29;20522;-84
2022/06/19 04:04:33;;;;;;;2.88;0.90;;;13.80;99.90;;;;;;4064966;29;20527;-83
2022/06/19 04:06:53;;;;;;;0.73;0.73;;;13.80;99.90;;;;;;4108968;28;20058;-83
2022/06/19 04:09:17;;;;;;;0.80;0.80;;;13.80;99.90;;;;;;4106451;28;20047;-83
2022/06/19 04:11:40;;;;;;;1.15;1.15;;;13.60;99.90;;;;;;4148881;28;20072;-83
2022/06/19 04:14:01;;;;;;;0.90;0.80;;;13.60;99.90;;;;;;4160601;28;20052;-83
2022/06/19 04:16:28;;;;;;;0.90;0.90;;;13.80;99.90;;;;;;4152443;28;20114;-83
2022/06/19 04:18:50;;;;;;;0.70;0.70;;;13.70;99.90;;;;;;4137278;28;20132;-83
2022/06/19 04:21:19;;;;;;;1.25;0.70;;;13.70;99.90;;;;;;4163121;28;20135;-83
2022/06/19 04:23:41;;;;;;;0.80;0.80;;;13.70;99.90;;;;;;4165481;28;20052;-83
2022/06/19 04:26:01;;;;;;;1.95;0.70;;;13.80;99.90;;;;;;4165710;28;20051;-83
2022/06/19 04:28:24;;;;;;;1.02;1.02;;;13.90;99.90;;;;;;4175268;28;20080;-83
2022/06/19 04:30:46;;;;;;;0.80;0.80;;;13.90;99.90;;;;;;4163159;28;20056;-83
2022/06/19 04:33:09;;;;;;;0.70;0.70;;;13.90;99.90;;;;;;4148780;28;20080;-83
2022/06/19 04:35:30;;;;;;;0.70;0.70;;;14.00;99.90;;;;;;4162660;28;20057;-83
2022/06/19 04:37:53;;;;;;;0.80;0.80;;;14.10;99.90;;;;;;4148675;28;20100;-83
2022/06/19 04:40:15;;;;;;;0.80;0.80;;;14.10;99.90;;;;;;4173208;28;20059;-83
2022/06/19 04:42:35;;;;;;;0.80;0.80;;;14.00;99.90;;;;;;4196158;28;20064;-83
2022/06/19 04:44:56;;;;;;;1.27;0.90;;;13.80;99.90;;;;;;4189335;28;20543;-83
2022/06/19 04:47:17;;;;;;;2.95;0.80;;;13.80;99.90;;;;;;4196545;28;20126;-83
2022/06/19 04:50:01;;;;;;;0.80;0.80;;;13.60;99.90;;;;;;4196706;28;20050;-84
2022/06/19 04:52:23;;;;;;;0.90;0.90;;;13.40;99.90;;;;;;4181585;28;20535;-83
2022/06/19 04:54:45;;;;;;;0.90;0.90;;;13.40;99.90;;;;;;4181376;28;20384;-83
2022/06/19 04:57:33;;;;;;;2.00;0.90;;;13.40;99.90;;;;;;4194995;28;20051;-83
2022/06/19 04:59:54;;;;;;;1.88;1.00;;;13.40;99.90;;;;;;4146059;28;20549;-83
2022/06/19 05:02:16;;;;;;;2.00;1.00;;;13.50;99.90;;;;;;4132213;28;20057;-83
2022/06/19 05:04:38;;;;;;;0.88;0.88;;;13.60;99.90;;;;;;4145571;28;20123;-84
2022/06/19 05:06:59;;;;;;;0.90;0.90;;;13.70;99.90;;;;;;4145294;28;20077;-83
2022/06/19 05:09:19;;;;;;;0.80;0.80;;;13.80;99.90;;;;;;4145523;28;20056;-83
2022/06/19 05:11:41;;;;;;;0.80;0.80;;;13.80;99.90;;;;;;4129398;28;20053;-83
2022/06/19 05:14:03;;;;;;;0.90;0.80;;;14.00;99.90;;;;;;4141884;28;20165;-83
2022/06/19 05:16:24;;;;;;;0.70;0.70;;;14.10;99.90;;;;;;4145634;28;20100;-83
2022/06/19 05:19:12;;;;;;;0.70;0.70;;;14.30;99.90;;;;;;4161750;28;20052;-83
2022/06/19 05:21:35;;;;;;;1.25;0.80;;;14.40;99.90;;;;;;4097725;29;20488;-83
2022/06/19 05:23:57;;;;;;;0.80;0.80;;;14.40;99.90;;;;;;4097217;29;20050;-83
2022/06/19 05:26:43;;;;;;;0.98;0.80;;;14.50;99.90;;;;;;4097497;29;20063;-83
2022/06/19 05:29:20;;;;;;;1.10;0.70;;;14.60;99.90;;;;;;4056262;29;20059;-83
2022/06/19 05:32:11;;;;;;;0.90;0.80;;;14.70;99.90;;;;;;4050587;29;20055;-83
2022/06/19 05:34:57;;;;;;;0.70;0.70;;;15.00;99.90;;;;;;4006672;29;20044;-83
2022/06/19 05:37:40;;;;;;;0.60;0.60;;;15.10;99.90;;;;;;4016393;29;20073;-84
2022/06/19 05:39:59;;;;;;;0.60;0.60;;;15.10;99.90;;;;;;3978323;29;20083;-83
2022/06/19 05:42:19;;;;;;;1.10;0.70;;;15.30;99.90;;;;;;3999802;29;20955;-84
2022/06/19 05:44:38;;;;;;;1.92;0.70;;;15.30;99.90;;;;;;3993747;29;20049;-83
2022/06/19 05:47:26;;;;;;;0.60;0.60;;;15.40;99.90;;;;;;4019295;29;20044;-83
2022/06/19 05:49:46;;;;;;;0.90;0.70;;;15.40;99.90;;;;;;3991619;29;20049;-83
2022/06/19 05:52:24;;;;;;;0.60;0.60;;;15.50;99.90;;;;;;3993439;29;20560;-83
2022/06/19 05:54:46;;;;;;;0.90;0.70;;;15.70;99.90;;;;;;3993653;29;20045;-83
2022/06/19 05:57:06;;;;;;;0.60;0.60;;;15.80;99.90;;;;;;4006195;29;20094;-83
2022/06/19 05:59:54;;;;;;;2.30;0.70;;;15.90;99.90;;;;;;3991608;29;20046;-84
2022/06/19 06:02:16;;;;;;;0.70;0.70;;;16.10;99.90;;;;;;3991403;29;20138;-84
2022/06/19 06:04:37;;;;;;;0.70;0.70;;;16.30;99.90;;;;;;3986220;29;20057;-83
2022/06/19 06:07:24;;;;;;;1.60;0.60;;;16.40;99.90;;;;;;4018852;29;20080;-83
2022/06/19 06:09:44;;;;;;;0.60;0.60;;;16.50;99.90;;;;;;4021333;29;20089;-83
2022/06/19 06:12:05;;;;;;;0.60;0.60;;;16.70;99.90;;;;;;3961506;29;20091;-84
2022/06/19 06:14:26;;;;;;;1.25;0.60;;;16.90;99.90;;;;;;3996655;29;20427;-84
2022/06/19 06:17:12;;;;;;;0.60;0.60;;;17.10;99.90;;;;;;4033525;29;20115;-84
2022/06/19 06:19:49;;;;;;;1.27;0.50;;;17.10;99.90;;;;;;4052995;29;20088;-83
2022/06/19 06:22:25;;;;;;;0.65;0.50;;;17.30;99.90;;;;;;4041995;29;20124;-84
2022/06/19 06:25:03;;;;;;;0.90;0.50;;;17.50;99.90;;;;;;4037605;29;20129;-82
2022/06/19 06:28:07;;;;;;;0.50;0.50;;;17.70;99.90;;;;;;4068334;29;20083;-82
2022/06/19 06:30:26;;;;;;;0.50;0.50;;;18.60;99.90;;;;;;4046197;29;20074;-81
2022/06/19 06:32:46;;;;;;;0.50;0.50;;;19.40;99.90;;;;;;4054996;29;20044;-83
2022/06/19 06:35:06;;;;;;;0.50;0.50;;;20.10;99.60;;;;;;4048190;29;20172;-82
2022/06/19 06:37:28;;;;;;;0.30;0.30;;;20.60;98.60;;;;;;4024049;29;20056;-82
2022/06/19 06:40:15;;;;;;;1.55;0.85;;;21.20;97.20;;;;;;4082402;29;20038;-82
2022/06/19 06:42:35;;;;;;;0.40;0.40;;;21.70;96.10;;;;;;4025730;29;20533;-81
2022/06/19 06:44:55;;;;;;;0.40;0.40;;;22.20;96.50;;;;;;4050203;29;20051;-82
2022/06/19 06:47:41;;;;;;;0.57;0.40;;;22.50;95.30;;;;;;4023409;29;20052;-82
2022/06/19 06:50:02;;;;;;;0.40;0.40;;;22.90;95.10;;;;;;3986343;29;20049;-82
2022/06/19 06:52:25;;;;;;;1.13;0.40;;;23.10;94.50;;;;;;3978478;29;20183;-82
2022/06/19 06:54:46;;;;;;;0.30;0.30;;;23.50;93.90;;;;;;3979373;29;20054;-82
2022/06/19 06:57:07;;;;;;;0.40;0.40;;;23.50;93.40;;;;;;4044596;29;20059;-80
2022/06/19 06:59:27;;;;;;;0.32;0.32;;;23.70;93.10;;;;;;4049869;29;20060;-80
2022/06/19 07:01:49;;;;;;;0.35;0.35;;;23.90;92.70;;;;;;4050409;29;20047;-80
2022/06/19 07:04:10;;;;;;;0.30;0.30;;;24.10;92.40;;;;;;4050462;29;20091;-80
2022/06/19 07:06:32;;;;;;;0.30;0.30;;;24.30;91.20;;;;;;4052052;29;20555;-80
2022/06/19 07:08:53;;;;;;;1.33;0.30;;;24.50;91.70;;;;;;4052464;29;20128;-80
2022/06/19 07:11:19;;;;;;;0.30;0.30;;;24.60;89.90;;;;;;4069401;29;20382;-80
2022/06/19 07:13:40;;;;;;;0.30;0.30;;;24.90;91.90;;;;;;4081286;29;20071;-80
2022/06/19 07:16:01;;;;;;;0.30;0.30;;;25.40;91.40;;;;;;4065715;29;20467;-80
2022/06/19 07:18:21;;;;;;;0.30;0.30;;;25.90;89.80;;;;;;4065461;29;20488;-80
2022/06/19 07:20:42;;;;;;;0.43;0.30;;;26.30;89.60;;;;;;4128802;28;20113;-80
2022/06/19 07:23:05;;;;;;;0.30;0.30;;;26.40;87.10;;;;;;4129067;28;20053;-79
2022/06/19 07:25:26;;;;;;;2.40;0.52;;;26.40;91.00;;;;;;4115602;28;20069;-80
2022/06/19 07:27:48;;;;;;;0.45;0.30;;;26.40;87.20;;;;;;4177663;28;20103;-80
2022/06/19 07:30:13;;;;;;;0.30;0.30;;;26.10;87.50;;;;;;4184068;28;20071;-82
2022/06/19 07:32:34;;;;;;;1.10;0.30;;;25.90;89.00;;;;;;4195972;28;20098;-80
2022/06/19 07:34:55;;;;;;;0.30;0.30;;;26.10;88.20;;;;;;4179487;28;20516;-79
2022/06/19 07:37:16;;;;;;;1.05;0.30;;;26.60;90.40;;;;;;4189944;28;20694;-80
2022/06/19 07:39:37;;;;;;;0.28;0.20;;;26.60;87.60;;;;;;4193395;28;20052;-80
2022/06/19 07:41:59;;;;;;;0.40;0.30;;;27.00;88.50;;;;;;4179061;28;20132;-80
2022/06/19 07:44:20;;;;;;;0.40;0.30;;;27.60;88.40;;;;;;4195813;28;20467;-80
2022/06/19 07:51:59;;;;;;;0.20;0.20;;;28.70;87.30;;;;;;4196573;28;20114;-80
2022/06/19 07:54:20;;;;;;;0.20;0.20;;;28.80;82.50;;;;;;4180006;28;20128;-81
2022/06/19 07:56:40;;;;;;;0.30;0.30;;;28.70;83.60;;;;;;4191190;28;20132;-80
2022/06/19 07:59:02;;;;;;;0.22;0.22;;;28.70;84.40;;;;;;4192203;28;20087;-81
2022/06/19 08:01:23;;;;;;;0.20;0.20;;;28.70;80.30;;;;;;4179001;28;20453;-80
2022/06/19 08:04:04;;;;;;;0.28;0.28;;;28.80;81.40;;;;;;4179041;28;20119;-81
2022/06/19 08:06:25;;;;;;;0.30;0.30;;;29.10;80.00;;;;;;4178913;28;20071;-80
2022/06/19 08:08:46;;;;;;;0.30;0.20;;;29.40;80.40;;;;;;4191548;28;20129;-81
2022/06/19 08:11:07;;;;;;;0.20;0.20;;;29.70;81.40;;;;;;4187472;28;20038;-80
2022/06/19 08:13:30;;;;;;;0.28;0.20;;;29.80;77.30;;;;;;4178679;28;20793;-81
2022/06/19 08:15:54;;;;;;;0.20;0.20;;;29.90;77.30;;;;;;4191536;28;20050;-81
2022/06/19 08:18:15;;;;;;;0.20;0.20;;;30.10;80.00;;;;;;4195218;28;20132;-80
2022/06/19 08:20:36;;;;;;;0.30;0.30;;;30.00;75.80;;;;;;4196163;28;20047;-80
2022/06/19 08:22:56;;;;;;;2.78;0.30;;;29.90;77.00;;;;;;4195350;28;20056;-81
2022/06/19 08:25:20;;;;;;;0.20;0.20;;;30.10;78.20;;;;;;4183278;28;20047;-81
2022/06/19 08:27:42;;;;;;;2.28;0.20;;;30.40;78.30;;;;;;4183041;28;20051;-81
2022/06/19 08:30:15;;;;;;;0.20;0.20;;;30.50;75.30;;;;;;4196049;28;20055;-81
2022/06/19 08:32:36;;;;;;;2.10;0.25;;;30.80;73.90;;;;;;4196515;28;20094;-81
2022/06/19 08:34:57;;;;;;;0.20;0.20;;;30.50;73.90;;;;;;4195701;28;20059;-81
2022/06/19 08:37:17;;;;;;;0.73;0.30;;;31.00;75.80;;;;;;4192177;28;20579;-81
2022/06/19 08:39:39;;;;;;;0.22;0.22;;;31.00;75.70;;;;;;4178028;28;20564;-81
2022/06/19 08:42:25;;;;;;;1.27;0.25;;;30.80;75.30;;;;;;4177977;28;20044;-81
2022/06/19 08:44:52;;;;;;;0.20;0.20;;;31.00;73.20;;;;;;4189949;28;20059;-82
2022/06/19 08:47:25;;;;;;;0.20;0.20;;;31.10;73.10;;;;;;4183683;28;20107;-81
2022/06/19 08:50:04;;;;;;;0.20;0.20;;;31.20;72.40;;;;;;4184319;28;20055;-82
2022/06/19 08:52:28;;;;;;;0.43;0.20;;;31.30;73.60;;;;;;4195707;28;20059;-81
2022/06/19 08:55:23;;;;;;;0.35;0.20;;;31.40;78.30;;;;;;4194376;28;20111;-81
2022/06/19 08:58:14;;;;;;;0.52;0.30;;;31.50;74.70;;;;;;4194587;28;20145;-81
2022/06/19 09:00:46;;;;;;;1.25;0.20;;;31.80;74.50;;;;;;4194334;28;20054;-81
2022/06/19 09:03:25;;;;;;;0.50;0.30;;;31.90;74.30;;;;;;4195502;28;20377;-81
2022/06/19 09:06:04;;;;;;;0.22;0.20;;;31.60;74.70;;;;;;4191123;28;20075;-81
2022/06/19 09:08:44;;;;;;;0.30;0.30;;;31.00;73.10;;;;;;4191769;28;20079;-81
2022/06/19 09:11:40;;;;;;;1.50;0.20;;;31.10;78.20;;;;;;4178601;28;20569;-82
2022/06/19 09:14:20;;;;;;;0.30;0.30;;;31.70;73.70;;;;;;4178194;28;20047;-82
2022/06/19 09:16:45;;;;;;;0.30;0.30;;;31.30;72.40;;;;;;4186625;28;20115;-81
2022/06/19 09:19:12;;;;;;;0.52;0.30;;;31.20;76.70;;;;;;4177397;28;20071;-81
2022/06/19 09:21:56;;;;;;;0.28;0.28;;;31.70;75.70;;;;;;4178857;28;20052;-81
2022/06/19 09:24:33;;;;;;;0.65;0.28;;;32.00;73.50;;;;;;4178878;28;20051;-81
2022/06/19 09:26:57;;;;;;;0.60;0.30;;;31.40;73.30;;;;;;4181772;28;20462;-81
2022/06/19 09:29:41;;;;;;;0.25;0.25;;;31.10;75.00;;;;;;4190501;28;20121;-81
2022/06/19 09:32:50;;;;;;;1.98;0.40;;;30.70;73.10;;;;;;4186587;28;20105;-81
2022/06/19 09:35:39;;;;;;;0.20;0.20;;;30.40;75.30;;;;;;4178470;28;20055;-81
2022/06/19 09:38:12;;;;;;;0.35;0.30;;;31.40;77.30;;;;;;4190911;28;20098;-82
2022/06/19 09:41:03;;;;;;;0.30;0.30;;;31.70;75.40;;;;;;4192911;28;20156;-81
2022/06/19 09:43:39;;;;;;;0.90;0.30;;;31.70;74.60;;;;;;4172816;28;20170;-82
2022/06/19 09:46:10;;;;;;;0.30;0.30;;;30.80;74.10;;;;;;4170571;28;20498;-81
2022/06/19 09:48:52;;;;;;;0.20;0.20;;;30.90;78.60;;;;;;4166769;28;20136;-81
2022/06/19 09:51:30;;;;;;;0.30;0.30;;;31.30;74.20;;;;;;4190862;28;20094;-81
2022/06/19 09:53:57;;;;;;;1.58;0.30;;;31.20;73.60;;;;;;4189960;28;20099;-81
2022/06/19 09:56:23;;;;;;;1.55;0.40;;;31.40;74.30;;;;;;4176147;28;20080;-81
2022/06/19 09:59:21;;;;;;;0.20;0.20;;;31.60;75.70;;;;;;4181885;28;20098;-82
2022/06/19 10:01:44;;;;;;;0.60;0.25;;;31.40;74.90;;;;;;4189460;28;20051;-82
2022/06/19 10:04:14;;;;;;;0.20;0.20;;;30.90;72.80;;;;;;4185171;28;20419;-81
2022/06/19 10:06:37;;;;;;;0.22;0.22;;;31.10;77.20;;;;;;4187434;28;20059;-82
2022/06/19 10:09:12;;;;;;;0.80;0.20;;;31.50;76.80;;;;;;4186542;28;20043;-81
2022/06/19 10:11:41;;;;;;;1.17;0.20;;;32.00;75.00;;;;;;4184631;28;20512;-82
2022/06/19 10:14:32;;;;;;;0.70;0.25;;;31.40;74.20;;;;;;4180801;28;20053;-83
2022/06/19 10:17:21;;;;;;;0.30;0.20;;;30.90;75.60;;;;;;4186784;28;20048;-82
2022/06/19 10:19:53;;;;;;;0.98;0.22;;;31.20;75.90;;;;;;4192834;28;20056;-82
2022/06/19 10:22:35;;;;;;;0.30;0.30;;;30.70;74.60;;;;;;4185152;28;20052;-82
2022/06/19 10:25:22;;;;;;;0.75;0.30;;;30.50;74.60;;;;;;4181244;28;20104;-84
2022/06/19 10:28:22;;;;;;;0.20;0.20;;;30.80;74.30;;;;;;4183592;28;20103;-85
2022/06/19 10:31:21;;;;;;;0.30;0.30;;;30.70;76.00;;;;;;4185691;28;20487;-85
2022/06/19 10:34:00;;;;;;;0.22;0.22;;;30.60;77.00;;;;;;4188406;28;20577;-85
2022/06/19 10:36:28;;;;;;;0.20;0.20;;;30.80;77.80;;;;;;4194103;28;20047;-85
2022/06/19 10:39:27;;;;;;;0.20;0.20;;;30.90;76.40;;;;;;4186416;28;20540;-85
2022/06/19 10:42:17;;;;;;;1.75;0.20;;;30.60;73.30;;;;;;4186195;28;20052;-85
2022/06/19 10:48:04;;;;;;;1.93;0.30;;;31.20;74.10;;;;;;4196229;28;20047;-86
2022/06/19 10:51:10;;;;;;;1.10;0.20;;;30.10;74.70;;;;;;4191702;28;20369;-85
2022/06/19 10:53:51;;;;;;;0.30;0.30;;;30.50;76.20;;;;;;4147225;28;20057;-85
2022/06/19 10:56:38;;;;;;;0.20;0.20;;;30.30;74.80;;;;;;4136789;28;20061;-86
2022/06/19 10:58:59;;;;;;;0.20;0.20;;;31.30;78.00;;;;;;4161181;28;20048;-86
2022/06/19 11:04:13;;;;;;;0.20;0.20;;;32.10;73.60;;;;;;4164665;28;20064;-86
2022/06/19 11:06:51;;;;;;;0.20;0.20;;;32.20;80.90;;;;;;4163514;28;20056;-86
2022/06/19 11:29:37;;;;;;;;;;;;;;;;;;;;;
2022/06/19 11:32:25;;;;;;;0.20;0.20;;;31.70;74.30;;;;;;4147689;28;20061;-85
2022/06/19 11:35:07;;;;;;;0.20;0.20;;;32.20;70.40;;;;;;4166143;28;20059;-85
2022/06/19 11:37:50;;;;;;;0.20;0.20;;;31.90;71.40;;;;;;4116745;28;20064;-84
2022/06/19 11:40:12;;;;;;;;;;;31.30;75.70;;;;;;4144952;28;20677;-85
2022/06/19 11:42:52;;;;;;;1.45;0.20;;;32.00;72.20;;;;;;4132969;28;19969;-85
2022/06/19 11:45:13;;;;;;;0.30;0.20;;;32.30;71.50;;;;;;4133363;28;20724;-85
2022/06/19 11:47:43;;;;;;;0.98;0.20;;;32.60;72.10;;;;;;4146790;28;20080;-85
2022/06/19 11:50:10;;;;;;;0.22;0.20;;;33.10;77.10;;;;;;4132758;28;20529;-85
2022/06/19 11:52:30;;;;;;;0.25;0.22;;;32.90;71.20;;;;;;4133195;28;20228;-85
2022/06/19 11:54:55;;;;;;;0.43;0.28;;;32.70;71.10;;;;;;4130903;28;20450;-85
2022/06/19 11:57:29;;;;;;;0.47;0.20;;;32.20;71.00;;;;;;4130625;28;20096;-85
2022/06/19 11:59:56;;;;;;;0.30;0.30;;;32.40;69.50;;;;;;4130797;28;20101;-85
2022/06/19 12:02:39;;;;;;;0.20;0.20;;;32.40;73.80;;;;;;4142351;28;20080;-85
2022/06/19 12:05:07;;;;;;;0.75;0.50;;;32.90;70.40;;;;;;4146515;28;20121;-85
2022/06/19 12:07:34;;;;;;;1.27;0.20;;;32.70;71.50;;;;;;4147987;28;20065;-85
2022/06/19 12:10:13;;;;;;;0.20;0.20;;;32.30;69.60;;;;;;4165441;28;20511;-85
2022/06/19 12:12:34;;;;;;;0.38;0.20;;;32.10;73.00;;;;;;4165445;28;20112;-85
2022/06/19 12:15:22;;;;;;;0.20;0.20;;;32.00;72.30;;;;;;4190325;28;20050;-84
2022/06/19 12:17:44;;;;;;;0.50;0.20;;;31.40;70.50;;;;;;4187959;28;20102;-85
2022/06/19 12:20:06;;;;;;;0.20;0.20;;;31.40;73.00;;;;;;4165113;28;20107;-85
2022/06/19 12:22:45;;;;;;;5.18;0.22;;;31.40;73.90;;;;;;4165187;28;20180;-85
2022/06/19 12:25:24;;;;;;;1.30;0.30;;;31.30;70.10;;;;;;4190871;28;20052;-85
2022/06/19 12:27:59;;;;;;;0.20;0.20;;;31.70;71.10;;;;;;4181671;28;20131;-85
2022/06/19 12:30:31;;;;;;;0.20;0.20;;;32.40;73.30;;;;;;4188799;28;20111;-85
2022/06/19 12:32:55;;;;;;;0.20;0.20;;;31.90;71.60;;;;;;4159283;28;20574;-85
2022/06/19 12:35:37;;;;;;;0.20;0.20;;;31.70;74.00;;;;;;4148650;28;20052;-85
2022/06/19 12:37:59;;;;;;;1.98;0.20;;;32.20;71.50;;;;;;4167561;28;20122;-85
2022/06/19 12:40:55;;;;;;;0.32;0.30;;;32.80;72.30;;;;;;4191698;28;20043;-86
2022/06/19 12:43:42;;;;;;;0.20;0.20;;;33.00;71.00;;;;;;4105742;28;20053;-85
2022/06/19 12:46:28;;;;;;;0.22;0.20;;;33.10;71.70;;;;;;4097679;29;20069;-85
2022/06/19 12:49:09;;;;;;;0.20;0.20;;;32.90;72.80;;;;;;4098149;28;20066;-85
2022/06/19 12:51:53;;;;;;;1.13;0.20;;;32.50;71.40;;;;;;4111474;28;20117;-85
2022/06/19 12:54:28;;;;;;;0.20;0.20;;;32.80;72.30;;;;;;4097442;29;20054;-85
2022/06/19 12:57:04;;;;;;;0.75;0.20;;;33.30;69.10;;;;;;4080559;29;20078;-85
2022/06/19 12:59:39;;;;;;;0.82;0.20;;;33.40;68.70;;;;;;4091353;29;20537;-85
2022/06/19 13:02:05;;;;;;;0.20;0.20;;;32.70;69.70;;;;;;4088369;28;20049;-85
2022/06/19 13:04:44;;;;;;;0.20;0.20;;;32.80;67.80;;;;;;4113619;28;20097;-85
2022/06/19 13:07:36;;;;;;;0.30;0.20;;;33.20;74.40;;;;;;4125307;28;20065;-85
2022/06/19 13:10:15;;;;;;;0.28;0.20;;;33.70;66.30;;;;;;4088462;28;20624;-85
2022/06/19 13:16:05;;;;;;;0.63;0.20;;;33.90;71.50;;;;;;4088240;29;20100;-85
2022/06/19 13:18:42;;;;;;;1.25;0.20;;;33.90;68.40;;;;;;4072942;29;20059;-85
2022/06/19 13:21:22;;;;;;;0.20;0.20;;;33.40;70.00;;;;;;4105266;28;20053;-85
2022/06/19 13:23:51;;;;;;;0.30;0.30;;;32.80;68.90;;;;;;4112605;28;20106;-85
2022/06/19 13:29:34;;;;;;;1.05;0.20;;;32.50;71.00;;;;;;4097330;29;20055;-85
2022/06/19 13:32:03;;;;;;;0.22;0.22;;;32.70;67.60;;;;;;4125843;28;20064;-85
2022/06/19 13:34:48;;;;;;;1.27;0.20;;;32.20;71.00;;;;;;4104607;28;20062;-85
2022/06/19 13:37:43;;;;;;;0.30;0.30;;;32.20;67.80;;;;;;4099569;28;20446;-85
2022/06/19 13:40:17;;;;;;;0.20;0.20;;;31.70;70.60;;;;;;4116023;28;20057;-85
2022/06/19 13:42:52;;;;;;;1.13;0.20;;;31.70;70.70;;;;;;4131445;28;20056;-86